Carlton, Colorado
Current Conditions -  °F | °C
As of 1:53 PM on Thursday 23 Oct 2014 (Local Time) from KLAA Reporting Station
Clear Clear  
Wind Chill: 75°   Ceiling: Unl
Heat Index: 75°   Visibility: 10mi
Dew Point: 47°   Wind: 0mph
Humidity: 37%   Direction: NA
Pressure: 30.06"   Gusts: NA
Location:  37.885°N, 102.667°W
Report Text: KLAA 231953Z AUTO 00000KT 10SM CLR 24/08 A3006 RMK AO2 SLP148 T02390083
Loading
Personal Weather Stations






























Interactive Weather Map
Tropical Storm Tracking
New forecast layout! Learn more

10-Day Weather Forecast

Advertisements
Track Severe Weather on mobile